Time;durP1;ratioP1;P1;durP2;ratioP2;P2;SDS_P1;SDS_P2;PMS_P1;PMS_P2;Temp;Humidity;BMP_temperature;BMP_pressure;BME280_temperature;BME280_humidity;BME280_pressure;Samples;Min_cycle;Max_cycle;Signal;HPM_P1;HPM_P2
2022/10/02 00:01:19;;;;;;;0.00;0.00;;;12.40;98.00;;;;;;4944466;28;20412;-76
2022/10/02 00:03:57;;;;;;;0.57;0.57;;;12.30;98.00;;;;;;4977166;28;20058;-76
2022/10/02 00:06:25;;;;;;;0.10;0.10;;;12.30;98.00;;;;;;4960148;28;20107;-76
2022/10/02 00:09:04;;;;;;;0.10;0.10;;;12.30;98.00;;;;;;4960526;28;20379;-76
2022/10/02 00:15:00;;;;;;;0.00;0.00;;;12.40;98.00;;;;;;4977426;28;20101;-76
2022/10/02 00:17:33;;;;;;;0.03;0.03;;;12.50;98.00;;;;;;4960119;28;20067;-76
2022/10/02 00:20:14;;;;;;;0.00;0.00;;;12.50;98.00;;;;;;4961168;28;20035;-76
2022/10/02 00:23:17;;;;;;;0.15;0.15;;;12.50;98.00;;;;;;4977231;28;20035;-76
2022/10/02 00:29:44;;;;;;;0.20;0.20;;;12.40;98.00;;;;;;4977397;28;20042;-76
2022/10/02 00:32:49;;;;;;;0.10;0.10;;;12.40;98.00;;;;;;4977084;28;20027;-76
2022/10/02 00:39:18;;;;;;;0.10;0.10;;;12.50;98.00;;;;;;4977418;28;20387;-76
2022/10/02 00:42:18;;;;;;;0.00;0.00;;;12.60;98.00;;;;;;4977492;28;20030;-76
2022/10/02 00:45:37;;;;;;;0.00;0.00;;;12.70;98.00;;;;;;4980553;28;20035;-76
2022/10/02 00:49:03;;;;;;;0.15;0.15;;;12.70;98.00;;;;;;4980029;28;20035;-76
2022/10/02 00:55:56;;;;;;;0.00;0.00;;;12.90;98.00;;;;;;4883499;29;20124;-77
2022/10/02 00:58:53;;;;;;;0.00;0.00;;;13.00;98.00;;;;;;4827968;29;20038;-77
2022/10/02 01:02:01;;;;;;;0.00;0.00;;;13.00;98.00;;;;;;4867699;29;20363;-76
2022/10/02 01:07:59;;;;;;;0.00;0.00;;;12.90;98.00;;;;;;4883777;29;20064;-76
2022/10/02 01:10:36;;;;;;;0.00;0.00;;;12.80;98.00;;;;;;4867937;29;20116;-76
2022/10/02 01:13:33;;;;;;;0.40;0.40;;;12.60;98.00;;;;;;4883206;29;20096;-76
2022/10/02 01:20:09;;;;;;;0.10;0.10;;;12.60;98.00;;;;;;4883240;29;20442;-76
2022/10/02 01:23:30;;;;;;;0.00;0.00;;;12.50;98.00;;;;;;4883139;29;20066;-76
2022/10/02 01:26:05;;;;;;;0.00;0.00;;;12.50;98.00;;;;;;4873984;28;20054;-76
2022/10/02 01:28:40;;;;;;;0.00;0.00;;;12.40;98.00;;;;;;4979932;28;20113;-76
2022/10/02 01:31:16;;;;;;;0.00;0.00;;;12.40;98.00;;;;;;4946684;28;20109;-75
2022/10/02 01:33:52;;;;;;;0.00;0.00;;;12.30;98.00;;;;;;4979922;28;20359;-75
2022/10/02 01:36:18;;;;;;;0.00;0.00;;;12.40;98.00;;;;;;4979707;28;20043;-75
2022/10/02 01:38:57;;;;;;;0.00;0.00;;;12.30;98.00;;;;;;4962664;28;20343;-75
2022/10/02 01:41:39;;;;;;;0.05;0.05;;;12.30;98.00;;;;;;4979665;28;20035;-76
2022/10/02 01:47:42;;;;;;;0.00;0.00;;;12.20;98.00;;;;;;4979959;28;20062;-76
2022/10/02 01:50:37;;;;;;;0.00;0.00;;;12.20;98.00;;;;;;4963522;28;20023;-76
2022/10/02 01:53:42;;;;;;;0.00;0.00;;;12.20;98.00;;;;;;4979373;28;20300;-76
2022/10/02 01:57:00;;;;;;;0.00;0.00;;;12.20;98.00;;;;;;4979508;28;20034;-76
2022/10/02 02:06:56;;;;;;;0.85;0.85;;;12.00;98.00;;;;;;4979675;28;20046;-76
2022/10/02 02:09:38;;;;;;;0.00;0.00;;;12.00;98.00;;;;;;4979162;28;20034;-76
2022/10/02 02:12:32;;;;;;;0.00;0.00;;;12.00;98.00;;;;;;4962125;28;20051;-76
2022/10/02 02:15:13;;;;;;;0.00;0.00;;;12.10;98.00;;;;;;4979307;28;20331;-76
2022/10/02 02:18:10;;;;;;;0.00;0.00;;;12.20;98.00;;;;;;4945717;28;20447;-76
2022/10/02 02:20:46;;;;;;;;;;;12.30;98.00;;;;;;4979469;28;20370;-76
2022/10/02 02:23:29;;;;;;;0.00;0.00;;;12.40;98.00;;;;;;4961795;28;19968;-76
2022/10/02 02:26:01;;;;;;;0.00;0.00;;;12.50;98.00;;;;;;4978689;28;20046;-76
2022/10/02 02:28:39;;;;;;;0.25;0.15;;;12.60;98.00;;;;;;4961609;28;20045;-76
2022/10/02 02:31:28;;;;;;;0.00;0.00;;;12.60;98.00;;;;;;4978722;28;20033;-76
2022/10/02 02:37:29;;;;;;;0.00;0.00;;;12.50;98.00;;;;;;4979068;28;20042;-76
2022/10/02 02:40:08;;;;;;;0.88;0.75;;;12.40;98.00;;;;;;4978600;28;20035;-76
2022/10/02 02:42:52;;;;;;;0.10;0.10;;;12.20;98.00;;;;;;4978414;28;20031;-76
2022/10/02 02:49:10;;;;;;;1.27;0.65;;;12.20;98.00;;;;;;4978632;28;20059;-76
2022/10/02 02:51:46;;;;;;;0.00;0.00;;;12.40;98.00;;;;;;4961350;28;20342;-76
2022/10/02 02:54:52;;;;;;;0.00;0.00;;;12.50;98.00;;;;;;4961262;28;20436;-76
2022/10/02 02:57:24;;;;;;;0.00;0.00;;;12.70;98.00;;;;;;4961623;28;20058;-76
2022/10/02 03:00:01;;;;;;;0.00;0.00;;;12.90;98.00;;;;;;4978313;28;20031;-76
2022/10/02 03:02:36;;;;;;;0.00;0.00;;;13.10;98.00;;;;;;4978278;28;20027;-76
2022/10/02 03:08:28;;;;;;;0.05;0.05;;;13.50;98.00;;;;;;4978395;28;20494;-76
2022/10/02 03:11:38;;;;;;;0.00;0.00;;;13.60;98.00;;;;;;4960922;28;20034;-76
2022/10/02 03:18:06;;;;;;;0.00;0.00;;;13.50;98.00;;;;;;4887891;28;20558;-76
2022/10/02 03:21:29;;;;;;;0.63;0.40;;;13.30;98.00;;;;;;4965183;28;20034;-76
2022/10/02 03:27:34;;;;;;;0.00;0.00;;;13.00;98.00;;;;;;4978192;28;20449;-76
2022/10/02 03:30:25;;;;;;;0.15;0.15;;;12.80;98.00;;;;;;4960671;28;20022;-76
2022/10/02 03:33:02;;;;;;;0.00;0.00;;;12.80;98.00;;;;;;4977643;28;20035;-76
2022/10/02 03:35:29;;;;;;;0.03;0.03;;;12.70;98.00;;;;;;4977368;28;20034;-76
2022/10/02 03:38:35;;;;;;;0.00;0.00;;;12.60;98.00;;;;;;4960758;28;20427;-76
2022/10/02 03:41:10;;;;;;;0.10;0.10;;;12.60;98.00;;;;;;4977435;28;20051;-76
2022/10/02 03:43:49;;;;;;;0.10;0.10;;;12.70;98.00;;;;;;4960601;28;20081;-76
2022/10/02 03:46:14;;;;;;;0.00;0.00;;;12.80;98.00;;;;;;4960420;28;20037;-76
2022/10/02 03:49:33;;;;;;;0.00;0.00;;;12.90;98.00;;;;;;4977721;28;20047;-76
2022/10/02 03:52:22;;;;;;;0.00;0.00;;;12.80;98.00;;;;;;4960363;28;20035;-76
2022/10/02 03:58:16;;;;;;;0.00;0.00;;;12.70;98.00;;;;;;4977648;28;20086;-76
2022/10/02 04:01:38;;;;;;;0.15;0.15;;;12.70;98.00;;;;;;4960542;28;20035;-76
2022/10/02 04:07:35;;;;;;;0.00;0.00;;;12.50;98.00;;;;;;4880904;29;20125;-75
2022/10/02 04:11:04;;;;;;;0.00;0.00;;;12.40;98.00;;;;;;4977335;28;20049;-76
2022/10/02 04:13:42;;;;;;;0.00;0.00;;;12.50;98.00;;;;;;4899019;29;20025;-76
2022/10/02 04:16:07;;;;;;;0.00;0.00;;;12.60;98.00;;;;;;4899019;29;20045;-76
2022/10/02 04:19:04;;;;;;;0.00;0.00;;;12.60;98.00;;;;;;4902545;29;20501;-76
2022/10/02 04:22:34;;;;;;;0.03;0.03;;;12.90;98.00;;;;;;4902956;29;20040;-76
2022/10/02 04:26:22;;;;;;;0.00;0.00;;;13.00;98.00;;;;;;4828475;29;20035;-76
2022/10/02 04:30:01;;;;;;;0.00;0.00;;;13.20;98.00;;;;;;4828548;29;20042;-76
2022/10/02 04:35:52;;;;;;;0.00;0.00;;;13.00;98.00;;;;;;4883789;29;19975;-76
2022/10/02 04:38:55;;;;;;;0.00;0.00;;;12.90;98.00;;;;;;4883903;29;20438;-76
2022/10/02 04:42:27;;;;;;;0.00;0.00;;;12.80;98.00;;;;;;4883682;29;20041;-76
2022/10/02 04:48:52;;;;;;;0.00;0.00;;;12.60;98.00;;;;;;4846988;29;20052;-76
2022/10/02 04:51:55;;;;;;;0.10;0.10;;;12.50;98.00;;;;;;4881491;29;20048;-76
2022/10/02 04:58:12;;;;;;;0.00;0.00;;;12.50;98.00;;;;;;4889873;29;20571;-76
2022/10/02 05:00:47;;;;;;;0.10;0.10;;;12.50;98.00;;;;;;4928445;28;20400;-76
2022/10/02 05:03:54;;;;;;;0.00;0.00;;;12.50;98.00;;;;;;4980506;28;20077;-76
2022/10/02 05:06:36;;;;;;;0.20;0.20;;;12.40;98.00;;;;;;4980394;28;20055;-76
2022/10/02 05:10:00;;;;;;;0.30;0.30;;;12.60;98.00;;;;;;4980282;28;20043;-76
2022/10/02 05:13:04;;;;;;;0.00;0.00;;;12.70;98.00;;;;;;4980228;28;20109;-76
2022/10/02 05:15:56;;;;;;;0.00;0.00;;;12.90;98.00;;;;;;4980006;28;20041;-76
2022/10/02 05:18:58;;;;;;;0.10;0.10;;;12.90;98.00;;;;;;4980017;28;20030;-76
2022/10/02 05:22:20;;;;;;;0.00;0.00;;;13.10;98.00;;;;;;4980033;28;20118;-76
2022/10/02 05:28:29;;;;;;;0.00;0.00;;;13.20;98.00;;;;;;4979813;28;20073;-75
2022/10/02 05:31:35;;;;;;;0.00;0.00;;;13.20;98.00;;;;;;4979854;28;20335;-75
2022/10/02 05:38:16;;;;;;;0.00;0.00;;;13.00;98.00;;;;;;4979915;28;20093;-75
2022/10/02 05:41:23;;;;;;;0.00;0.00;;;13.00;98.00;;;;;;4979816;28;20105;-75
2022/10/02 05:44:41;;;;;;;0.00;0.00;;;13.00;98.00;;;;;;4979726;28;20033;-75
2022/10/02 05:47:13;;;;;;;0.00;0.00;;;13.00;98.00;;;;;;4974680;28;20039;-75
2022/10/02 05:50:02;;;;;;;0.00;0.00;;;13.00;98.00;;;;;;4962609;28;20343;-75
2022/10/02 05:53:26;;;;;;;0.00;0.00;;;13.10;98.00;;;;;;4962675;28;20041;-75
2022/10/02 05:56:05;;;;;;;0.00;0.00;;;13.10;98.00;;;;;;4882507;29;20048;-75
2022/10/02 06:02:31;;;;;;;0.00;0.00;;;13.30;98.00;;;;;;4979531;28;20154;-75
2022/10/02 06:05:29;;;;;;;0.05;0.05;;;13.40;98.00;;;;;;4979274;28;20329;-75
2022/10/02 06:08:13;;;;;;;0.00;0.00;;;13.60;98.00;;;;;;4979383;28;20031;-75
2022/10/02 06:11:05;;;;;;;0.00;0.00;;;13.70;98.00;;;;;;4979248;28;20050;-75
2022/10/02 06:17:14;;;;;;;0.00;0.00;;;13.90;98.00;;;;;;4882307;29;20061;-75
2022/10/02 06:20:26;;;;;;;0.00;0.00;;;14.00;98.00;;;;;;4882169;29;20032;-76
2022/10/02 06:23:11;;;;;;;0.03;0.03;;;14.10;98.00;;;;;;4979020;28;20427;-76
2022/10/02 06:25:39;;;;;;;0.00;0.00;;;14.30;98.00;;;;;;4978718;28;20081;-76
2022/10/02 06:28:24;;;;;;;0.30;0.30;;;14.40;98.00;;;;;;4978883;28;20035;-76
2022/10/02 06:31:12;;;;;;;0.00;0.00;;;14.60;98.00;;;;;;4978827;28;20023;-76
2022/10/02 06:33:51;;;;;;;0.00;0.00;;;14.70;98.00;;;;;;4978777;28;20043;-76
2022/10/02 06:36:17;;;;;;;0.00;0.00;;;14.90;98.00;;;;;;4961807;28;20394;-76
2022/10/02 06:39:26;;;;;;;0.20;0.20;;;15.00;98.00;;;;;;4978575;28;20110;-76
2022/10/02 06:42:27;;;;;;;0.13;0.13;;;15.10;97.80;;;;;;4978669;28;20025;-76
2022/10/02 06:45:57;;;;;;;0.00;0.00;;;15.10;98.00;;;;;;4961365;28;20031;-76
2022/10/02 06:48:39;;;;;;;0.00;0.00;;;15.00;98.00;;;;;;4865950;29;20303;-76
2022/10/02 06:58:33;;;;;;;0.00;0.00;;;15.10;98.00;;;;;;4826745;29;20049;-76
2022/10/02 07:01:23;;;;;;;0.00;0.00;;;15.10;98.00;;;;;;4826212;29;20042;-76
2022/10/02 07:07:29;;;;;;;0.00;0.00;;;15.10;98.00;;;;;;4881786;29;20044;-76
2022/10/02 07:10:54;;;;;;;0.00;0.00;;;15.00;98.00;;;;;;4865715;29;20037;-76
2022/10/02 07:14:02;;;;;;;0.00;0.00;;;15.00;98.00;;;;;;4826004;29;20094;-76
2022/10/02 07:17:05;;;;;;;0.00;0.00;;;15.00;98.00;;;;;;4895145;28;20375;-76
2022/10/02 07:20:17;;;;;;;0.00;0.00;;;15.20;98.00;;;;;;4977827;28;20051;-76
2022/10/02 07:23:30;;;;;;;0.00;0.00;;;15.20;98.00;;;;;;4960875;28;20035;-76
2022/10/02 07:26:45;;;;;;;0.00;0.00;;;15.30;98.00;;;;;;4960567;28;20478;-76
2022/10/02 07:29:32;;;;;;;0.10;0.10;;;15.40;98.00;;;;;;4977749;28;20034;-76
2022/10/02 07:33:00;;;;;;;0.00;0.00;;;15.40;98.00;;;;;;4977795;28;20106;-76
2022/10/02 07:35:43;;;;;;;0.00;0.00;;;15.50;98.00;;;;;;4880791;29;20101;-77
2022/10/02 07:38:55;;;;;;;0.00;0.00;;;15.50;98.00;;;;;;4957616;28;20046;-76
2022/10/02 07:42:18;;;;;;;0.15;0.15;;;15.60;98.00;;;;;;4977681;28;20379;-76
2022/10/02 07:45:02;;;;;;;0.00;0.00;;;15.60;97.80;;;;;;4962723;28;20046;-76
2022/10/02 07:47:59;;;;;;;0.10;0.10;;;15.60;96.50;;;;;;4960560;28;20037;-76
2022/10/02 07:54:42;;;;;;;0.00;0.00;;;15.60;98.00;;;;;;4880673;29;20127;-76
2022/10/02 07:58:13;;;;;;;0.08;0.08;;;15.70;98.00;;;;;;4825391;29;20141;-76
2022/10/02 08:00:51;;;;;;;0.10;0.10;;;15.90;98.00;;;;;;4771547;30;20047;-76
2022/10/02 08:04:12;;;;;;;0.00;0.00;;;16.20;98.00;;;;;;4771216;30;20104;-76
2022/10/02 08:06:50;;;;;;;0.00;0.00;;;16.80;96.70;;;;;;4779147;29;20045;-76
2022/10/02 08:09:47;;;;;;;0.00;0.00;;;17.30;94.90;;;;;;4810100;29;20044;-76
2022/10/02 08:13:00;;;;;;;0.35;0.35;;;17.70;92.10;;;;;;4825419;29;20037;-76
2022/10/02 08:15:32;;;;;;;0.20;0.15;;;18.30;89.50;;;;;;4825212;29;20069;-78
2022/10/02 08:18:39;;;;;;;0.00;0.00;;;19.00;88.20;;;;;;4899108;29;20050;-77
2022/10/02 08:21:37;;;;;;;0.00;0.00;;;19.80;87.60;;;;;;4861846;29;20061;-77
2022/10/02 08:24:34;;;;;;;0.10;0.10;;;20.70;83.20;;;;;;4861725;29;20073;-77
2022/10/02 08:27:35;;;;;;;0.00;0.00;;;21.50;82.40;;;;;;4873530;29;20059;-77
2022/10/02 08:30:13;;;;;;;0.20;0.20;;;21.80;79.70;;;;;;4917951;29;20028;-77
2022/10/02 08:32:48;;;;;;;0.35;0.15;;;22.40;78.40;;;;;;4976510;28;20344;-75
2022/10/02 08:35:18;;;;;;;0.00;0.00;;;22.60;75.90;;;;;;4960007;28;20339;-74
2022/10/02 08:38:37;;;;;;;0.10;0.10;;;22.90;75.50;;;;;;4960040;28;20193;-74
2022/10/02 08:41:45;;;;;;;0.00;0.00;;;23.40;75.80;;;;;;4977094;28;20145;-74
2022/10/02 08:45:07;;;;;;;0.75;0.63;;;23.90;77.40;;;;;;4977039;28;20031;-74
2022/10/02 08:48:38;;;;;;;0.13;0.10;;;24.00;74.90;;;;;;4977039;28;20035;-74
2022/10/02 08:51:43;;;;;;;0.38;0.38;;;22.50;76.10;;;;;;4864661;29;20037;-74
2022/10/02 08:55:01;;;;;;;0.45;0.30;;;22.80;76.60;;;;;;4880131;29;20374;-74
2022/10/02 08:57:46;;;;;;;0.20;0.20;;;23.20;77.10;;;;;;4880193;29;20029;-74
2022/10/02 09:00:24;;;;;;;1.08;0.70;;;23.30;75.20;;;;;;4976985;28;20466;-74
2022/10/02 09:04:08;;;;;;;0.00;0.00;;;23.80;76.10;;;;;;4944519;28;20046;-74
2022/10/02 09:06:45;;;;;;;0.10;0.10;;;24.10;75.90;;;;;;4980460;28;20078;-74
2022/10/02 09:09:44;;;;;;;0.00;0.00;;;24.20;74.70;;;;;;4980272;28;20035;-74
2022/10/02 09:13:09;;;;;;;0.10;0.10;;;24.40;73.80;;;;;;4980255;28;20027;-74
2022/10/02 09:19:40;;;;;;;0.00;0.00;;;24.80;70.70;;;;;;4980408;28;20065;-74
2022/10/02 09:23:04;;;;;;;0.10;0.10;;;24.50;71.60;;;;;;4883166;29;20049;-74
2022/10/02 09:26:25;;;;;;;0.00;0.00;;;24.40;72.50;;;;;;4867255;29;20382;-75
2022/10/02 09:29:35;;;;;;;0.85;0.57;;;24.50;73.10;;;;;;4883069;29;20422;-75
2022/10/02 09:32:33;;;;;;;0.90;0.65;;;24.70;73.00;;;;;;4882992;29;20399;-75
2022/10/02 09:35:35;;;;;;;0.08;0.08;;;24.50;73.80;;;;;;4882733;29;20057;-74
2022/10/02 09:38:38;;;;;;;1.17;0.82;;;24.40;72.30;;;;;;4883017;29;20021;-74
2022/10/02 09:41:58;;;;;;;0.20;0.20;;;24.30;72.60;;;;;;4882852;29;20048;-74
2022/10/02 09:45:09;;;;;;;0.10;0.03;;;24.70;72.40;;;;;;4882647;29;20033;-74
2022/10/02 09:48:21;;;;;;;0.03;0.03;;;25.10;74.20;;;;;;4882797;29;20041;-74
2022/10/02 09:51:29;;;;;;;0.30;0.30;;;24.40;72.90;;;;;;4882807;29;20358;-74
2022/10/02 09:54:31;;;;;;;0.00;0.00;;;23.00;75.30;;;;;;4882446;29;20168;-74
2022/10/02 09:57:37;;;;;;;1.55;0.30;;;22.80;77.00;;;;;;4882605;29;20044;-74
2022/10/02 10:00:37;;;;;;;0.00;0.00;;;23.50;78.60;;;;;;4962197;28;20038;-74
2022/10/02 10:03:27;;;;;;;0.43;0.30;;;23.50;78.10;;;;;;4979354;28;20262;-75
2022/10/02 10:06:34;;;;;;;0.55;0.52;;;23.60;77.50;;;;;;4979196;28;20038;-74
2022/10/02 10:09:39;;;;;;;0.00;0.00;;;23.00;79.20;;;;;;4962034;28;20042;-74
2022/10/02 10:12:42;;;;;;;0.45;0.45;;;23.30;79.40;;;;;;4979173;28;20027;-74
2022/10/02 10:16:09;;;;;;;0.68;0.40;;;22.30;80.60;;;;;;4978934;28;20175;-74
2022/10/02 10:19:08;;;;;;;0.30;0.30;;;21.80;83.20;;;;;;4978670;28;20114;-74
2022/10/02 10:22:25;;;;;;;0.63;0.55;;;21.50;84.50;;;;;;4979046;28;20438;-77
2022/10/02 10:32:31;;;;;;;0.20;0.20;;;21.90;84.40;;;;;;4979172;28;20441;-77
2022/10/02 10:35:43;;;;;;;0.15;0.15;;;21.50;85.50;;;;;;4961499;28;20046;-75
2022/10/02 10:38:51;;;;;;;0.70;0.70;;;21.70;85.60;;;;;;4978698;28;20423;-76
2022/10/02 10:41:29;;;;;;;0.20;0.20;;;21.60;87.10;;;;;;4978637;28;20428;-76
2022/10/02 10:47:20;;;;;;;0.22;0.22;;;21.30;86.00;;;;;;4978950;28;20037;-77
2022/10/02 10:50:30;;;;;;;0.40;0.40;;;21.80;85.30;;;;;;4978499;28;20038;-77
2022/10/02 10:53:34;;;;;;;0.55;0.45;;;22.80;84.50;;;;;;4978474;28;20027;-77
2022/10/02 10:56:36;;;;;;;0.93;0.88;;;23.50;81.60;;;;;;4978268;28;20118;-75
2022/10/02 10:59:41;;;;;;;0.45;0.45;;;24.10;79.90;;;;;;4978326;28;20114;-74
2022/10/02 11:05:56;;;;;;;0.10;0.10;;;24.40;80.50;;;;;;4978146;28;20041;-74
2022/10/02 11:08:59;;;;;;;0.30;0.30;;;24.60;78.80;;;;;;4978115;28;20039;-74
2022/10/02 11:12:08;;;;;;;1.10;1.00;;;24.80;78.40;;;;;;4960981;28;20178;-75
2022/10/02 11:14:58;;;;;;;0.15;0.15;;;24.50;80.50;;;;;;4977918;28;20022;-74
2022/10/02 11:17:43;;;;;;;5.47;0.93;;;24.80;81.40;;;;;;4960833;28;20053;-74
2022/10/02 11:20:58;;;;;;;0.40;0.40;;;24.60;77.70;;;;;;4977958;28;20408;-74
2022/10/02 11:27:21;;;;;;;0.40;0.40;;;24.00;83.50;;;;;;4978170;28;20438;-74
2022/10/02 11:30:04;;;;;;;0.05;0.05;;;24.00;78.30;;;;;;4977898;28;20035;-74
2022/10/02 11:33:10;;;;;;;0.45;0.38;;;24.10;81.10;;;;;;4960734;28;20431;-75
2022/10/02 11:36:40;;;;;;;0.47;0.47;;;24.60;80.60;;;;;;4977529;28;20047;-75
2022/10/02 11:39:33;;;;;;;0.40;0.40;;;24.60;82.00;;;;;;4972865;28;20031;-75
2022/10/02 11:42:37;;;;;;;0.28;0.25;;;24.70;79.40;;;;;;4977686;28;20082;-74
2022/10/02 11:45:58;;;;;;;0.38;0.28;;;24.40;77.40;;;;;;4977617;28;20038;-74
2022/10/02 11:49:01;;;;;;;0.65;0.65;;;24.00;80.90;;;;;;4957469;28;20388;-74
2022/10/02 11:52:27;;;;;;;1.40;0.80;;;23.90;81.40;;;;;;4977685;28;20058;-74
2022/10/02 11:55:48;;;;;;;0.82;0.68;;;24.20;81.20;;;;;;4880696;29;20045;-74
2022/10/02 11:58:55;;;;;;;1.00;0.73;;;24.40;80.50;;;;;;4880639;29;20033;-74
2022/10/02 12:01:48;;;;;;;0.35;0.30;;;24.40;79.80;;;;;;4849828;29;20037;-74
2022/10/02 12:07:57;;;;;;;1.35;1.25;;;24.00;80.50;;;;;;4880965;29;20354;-74
2022/10/02 12:10:55;;;;;;;0.22;0.22;;;24.20;82.90;;;;;;4880667;29;20105;-74
2022/10/02 12:13:50;;;;;;;0.30;0.25;;;24.40;80.30;;;;;;4880425;29;20057;-74
2022/10/02 12:17:03;;;;;;;0.30;0.30;;;24.40;78.90;;;;;;4893605;28;20045;-74
2022/10/02 12:26:59;;;;;;;0.28;0.28;;;23.30;82.80;;;;;;4977732;28;20046;-74
2022/10/02 12:29:59;;;;;;;0.75;0.50;;;23.00;85.90;;;;;;4947698;28;20035;-74
2022/10/02 12:33:11;;;;;;;0.10;0.10;;;23.00;86.20;;;;;;4960273;28;20095;-74
2022/10/02 12:35:48;;;;;;;0.35;0.35;;;23.00;83.90;;;;;;4977076;28;20043;-74
2022/10/02 12:38:59;;;;;;;0.38;0.38;;;22.90;81.90;;;;;;4961679;28;20412;-74
2022/10/02 12:42:01;;;;;;;0.10;0.10;;;22.80;83.70;;;;;;4981049;28;20123;-74
2022/10/02 12:48:25;;;;;;;0.10;0.10;;;22.10;81.00;;;;;;4981159;28;20384;-77
2022/10/02 12:51:49;;;;;;;0.10;0.10;;;21.80;86.40;;;;;;4963511;28;20383;-77
2022/10/02 12:54:56;;;;;;;0.28;0.28;;;21.80;83.70;;;;;;4883584;29;20126;-77
2022/10/02 13:01:21;;;;;;;0.00;0.00;;;21.30;85.30;;;;;;4980841;28;20109;-77
2022/10/02 13:04:21;;;;;;;0.45;0.40;;;21.10;87.00;;;;;;4980302;28;20066;-77
2022/10/02 13:07:17;;;;;;;0.30;0.30;;;20.90;89.50;;;;;;4980383;28;20066;-77
2022/10/02 13:10:02;;;;;;;;;;;20.90;86.20;;;;;;4980727;28;20026;-77
2022/10/02 13:12:59;;;;;;;0.10;0.10;;;21.00;89.20;;;;;;4980575;28;20312;-77
2022/10/02 13:15:24;;;;;;;0.10;0.10;;;20.90;87.30;;;;;;4980228;28;20038;-77
2022/10/02 13:18:33;;;;;;;0.40;0.40;;;20.90;86.80;;;;;;4980281;28;20483;-77
2022/10/02 13:21:57;;;;;;;0.50;0.50;;;21.10;86.60;;;;;;4963021;28;20335;-76
2022/10/02 13:28:31;;;;;;;0.45;0.45;;;21.30;85.60;;;;;;4980411;28;20110;-76
2022/10/02 13:31:35;;;;;;;0.10;0.10;;;21.40;87.00;;;;;;4979917;28;20335;-76
2022/10/02 13:34:57;;;;;;;0.88;0.43;;;21.40;84.40;;;;;;4962548;28;20038;-78
2022/10/02 13:38:00;;;;;;;0.10;0.10;;;21.40;86.00;;;;;;4883020;29;20074;-76
2022/10/02 13:41:02;;;;;;;0.30;0.30;;;21.40;86.30;;;;;;4882862;29;20081;-77
2022/10/02 13:44:14;;;;;;;0.13;0.13;;;21.50;85.40;;;;;;4979789;28;20471;-77
2022/10/02 13:46:53;;;;;;;0.08;0.08;;;21.60;85.30;;;;;;4979827;28;20065;-78
2022/10/02 13:49:59;;;;;;;0.30;0.30;;;21.60;83.80;;;;;;4962075;28;20035;-77
2022/10/02 13:52:54;;;;;;;0.30;0.30;;;21.60;85.90;;;;;;4979936;28;20057;-77
2022/10/02 13:55:30;;;;;;;0.10;0.10;;;21.40;85.20;;;;;;4978859;28;20062;-77
2022/10/02 13:58:33;;;;;;;0.00;0.00;;;21.30;84.60;;;;;;4963041;28;20037;-77
2022/10/02 14:02:02;;;;;;;0.10;0.10;;;20.90;85.40;;;;;;4979456;28;20031;-77
2022/10/02 14:05:10;;;;;;;0.10;0.10;;;20.60;86.80;;;;;;4882467;29;20164;-77
2022/10/02 14:08:22;;;;;;;0.20;0.20;;;20.40;86.70;;;;;;4882463;29;20037;-77
2022/10/02 14:11:24;;;;;;;1.35;0.85;;;20.20;88.10;;;;;;4882391;29;20101;-77
2022/10/02 14:17:52;;;;;;;0.63;0.30;;;19.90;90.30;;;;;;4882768;29;20545;-77
2022/10/02 14:20:48;;;;;;;;;;;19.80;89.80;;;;;;4882665;29;20048;-78
2022/10/02 14:23:32;;;;;;;0.10;0.10;;;19.70;89.30;;;;;;4882136;29;20242;-77
2022/10/02 14:26:55;;;;;;;0.00;0.00;;;19.60;90.10;;;;;;4866367;29;20101;-77
2022/10/02 14:29:58;;;;;;;0.03;0.03;;;19.50;90.50;;;;;;4880900;29;20505;-77
2022/10/02 14:33:21;;;;;;;0.00;0.00;;;19.40;90.50;;;;;;4866379;29;20041;-77
2022/10/02 14:36:29;;;;;;;0.00;0.00;;;19.30;91.80;;;;;;4826519;29;20042;-77
2022/10/02 14:42:31;;;;;;;0.08;0.00;;;19.10;90.60;;;;;;4900755;29;20139;-77
2022/10/02 14:45:50;;;;;;;0.00;0.00;;;19.10;92.10;;;;;;4900383;29;20064;-77
2022/10/02 14:48:37;;;;;;;0.13;0.13;;;19.00;92.00;;;;;;4900486;29;20036;-77
2022/10/02 14:51:50;;;;;;;0.00;0.00;;;18.90;91.80;;;;;;4900392;29;20426;-77
2022/10/02 14:57:58;;;;;;;0.00;0.00;;;18.80;92.20;;;;;;4900692;29;20051;-77
2022/10/02 15:01:20;;;;;;;0.10;0.10;;;18.70;91.50;;;;;;4977624;28;20109;-77
2022/10/02 15:04:23;;;;;;;0.40;0.40;;;18.70;93.80;;;;;;4975321;28;20122;-77
2022/10/02 15:07:19;;;;;;;0.00;0.00;;;18.60;94.80;;;;;;4978204;28;20115;-77
2022/10/02 15:10:08;;;;;;;0.28;0.28;;;18.60;94.60;;;;;;4947812;28;20407;-77
2022/10/02 15:13:04;;;;;;;0.00;0.00;;;18.60;94.50;;;;;;4961575;28;20034;-77
2022/10/02 15:19:37;;;;;;;0.10;0.10;;;18.50;93.40;;;;;;4956887;28;20039;-77
2022/10/02 15:22:32;;;;;;;0.00;0.00;;;18.40;92.60;;;;;;4899793;29;20277;-77
2022/10/02 15:25:58;;;;;;;1.45;0.75;;;18.40;93.70;;;;;;4899579;29;20430;-77
2022/10/02 15:29:00;;;;;;;0.00;0.00;;;18.40;92.70;;;;;;4807670;29;20050;-76
2022/10/02 15:32:26;;;;;;;0.20;0.15;;;18.40;92.80;;;;;;4807435;29;20388;-76
2022/10/02 15:38:51;;;;;;;1.02;0.38;;;18.20;93.40;;;;;;4824470;29;20051;-77
2022/10/02 15:42:11;;;;;;;0.52;0.50;;;18.20;94.10;;;;;;4883957;29;20037;-77
2022/10/02 15:45:39;;;;;;;0.00;0.00;;;18.20;94.60;;;;;;4899291;29;20450;-77
2022/10/02 15:48:51;;;;;;;0.03;0.03;;;18.20;94.00;;;;;;4807419;29;20043;-77
2022/10/02 15:51:53;;;;;;;0.00;0.00;;;18.20;94.00;;;;;;4807395;29;20049;-77
2022/10/02 15:54:53;;;;;;;0.28;0.28;;;18.10;94.10;;;;;;4807180;29;21520;-77
2022/10/02 15:57:56;;;;;;;0.75;0.57;;;18.10;93.80;;;;;;4842450;29;20041;-77
2022/10/02 16:01:11;;;;;;;0.00;0.00;;;18.00;94.20;;;;;;4880618;29;20507;-77
2022/10/02 16:03:59;;;;;;;0.00;0.00;;;18.00;94.40;;;;;;4880683;29;20161;-77
2022/10/02 16:06:52;;;;;;;0.00;0.00;;;18.00;96.90;;;;;;4866618;29;20037;-77
2022/10/02 16:09:54;;;;;;;0.03;0.03;;;18.00;94.90;;;;;;4880670;29;20507;-77
2022/10/02 16:12:59;;;;;;;0.10;0.10;;;18.10;95.40;;;;;;4882136;29;20036;-77
2022/10/02 16:15:48;;;;;;;1.85;0.52;;;18.10;93.90;;;;;;4884221;29;20350;-77
2022/10/02 16:18:58;;;;;;;0.20;0.20;;;18.10;94.10;;;;;;4884251;29;20037;-77
2022/10/02 16:21:55;;;;;;;0.03;0.03;;;18.10;93.50;;;;;;4922913;28;20050;-77
2022/10/02 16:28:01;;;;;;;0.17;0.17;;;18.00;96.30;;;;;;4981453;28;20097;-77
2022/10/02 16:31:16;;;;;;;0.10;0.10;;;17.90;96.60;;;;;;4981089;28;20050;-77
2022/10/02 16:34:45;;;;;;;0.00;0.00;;;17.80;97.30;;;;;;4981281;28;20035;-77
2022/10/02 16:37:22;;;;;;;0.25;0.25;;;17.70;98.00;;;;;;4884123;29;20345;-77
2022/10/02 16:40:47;;;;;;;0.10;0.10;;;17.70;98.00;;;;;;4974584;28;20043;-77
2022/10/02 16:43:52;;;;;;;0.00;0.00;;;17.70;98.00;;;;;;4980928;28;20085;-77
2022/10/02 16:46:48;;;;;;;0.00;0.00;;;17.70;98.00;;;;;;4980728;28;20118;-77
2022/10/02 16:49:57;;;;;;;0.43;0.43;;;17.60;98.00;;;;;;4980787;28;20030;-78
2022/10/02 16:53:13;;;;;;;0.00;0.00;;;17.50;98.00;;;;;;4980823;28;20046;-78
2022/10/02 16:55:44;;;;;;;0.00;0.00;;;17.40;98.00;;;;;;4883651;29;20053;-77
2022/10/02 16:58:57;;;;;;;0.00;0.00;;;17.40;98.00;;;;;;4883820;29;20065;-77
2022/10/02 17:02:03;;;;;;;0.10;0.10;;;17.30;98.00;;;;;;4828222;29;20348;-77
2022/10/02 17:08:02;;;;;;;0.00;0.00;;;17.10;98.00;;;;;;4883955;29;20055;-78
2022/10/02 17:11:02;;;;;;;0.05;0.05;;;17.10;98.00;;;;;;4868050;29;20041;-77
2022/10/02 17:14:05;;;;;;;0.35;0.20;;;16.90;98.00;;;;;;4867673;29;20057;-77
2022/10/02 17:16:51;;;;;;;0.20;0.05;;;16.80;98.00;;;;;;4883405;29;20097;-77
2022/10/02 17:20:05;;;;;;;0.00;0.00;;;16.70;98.00;;;;;;4883430;29;20097;-77
2022/10/02 17:22:55;;;;;;;0.00;0.00;;;16.70;98.00;;;;;;4883202;29;20051;-77
2022/10/02 17:25:40;;;;;;;0.10;0.10;;;16.60;98.00;;;;;;4866817;29;20037;-77
2022/10/02 17:28:42;;;;;;;0.00;0.00;;;16.60;98.00;;;;;;4867613;29;20126;-77
2022/10/02 17:31:40;;;;;;;0.00;0.00;;;16.70;98.00;;;;;;4908395;28;20038;-77
2022/10/02 17:35:03;;;;;;;0.00;0.00;;;16.80;98.00;;;;;;4979931;28;20046;-77
2022/10/02 17:38:06;;;;;;;0.05;0.05;;;16.90;98.00;;;;;;4977729;28;20035;-77
2022/10/02 17:40:59;;;;;;;0.10;0.10;;;16.80;98.00;;;;;;4979690;28;20041;-77
2022/10/02 17:43:50;;;;;;;0.00;0.00;;;16.80;98.00;;;;;;4963290;28;20031;-77
2022/10/02 17:46:36;;;;;;;0.00;0.00;;;16.70;98.00;;;;;;4979624;28;20027;-77
2022/10/02 17:49:45;;;;;;;0.00;0.00;;;16.70;98.00;;;;;;4979799;28;20026;-77
2022/10/02 17:59:18;;;;;;;0.00;0.00;;;16.60;98.00;;;;;;4939217;29;20092;-77
2022/10/02 18:02:16;;;;;;;0.30;0.15;;;16.50;98.00;;;;;;4939220;29;20063;-77
2022/10/02 18:05:14;;;;;;;0.80;0.15;;;16.50;98.00;;;;;;4939030;29;20445;-77
2022/10/02 18:08:20;;;;;;;0.00;0.00;;;16.50;98.00;;;;;;4938926;29;20341;-77
2022/10/02 18:11:42;;;;;;;0.00;0.00;;;16.50;98.00;;;;;;4923004;29;20412;-77
2022/10/02 18:14:40;;;;;;;0.10;0.10;;;16.50;98.00;;;;;;4934423;29;20067;-77
2022/10/02 18:17:25;;;;;;;0.00;0.00;;;16.60;98.00;;;;;;4938850;29;20445;-77